createdAt,value
2023-10-26T00:04:29.401Z,45.55
2023-10-26T00:09:29.389Z,45.66
2023-10-26T00:14:29.404Z,45.49
2023-10-26T00:19:29.404Z,45.56
2023-10-26T00:24:29.407Z,45.38
2023-10-26T00:29:29.408Z,45.39
2023-10-26T00:34:29.397Z,45.48
2023-10-26T00:39:29.411Z,45.34
2023-10-26T00:44:29.399Z,45.57
2023-10-26T00:49:29.414Z,45.93
2023-10-26T00:54:29.414Z,45.6
2023-10-26T00:59:29.404Z,45.48
2023-10-26T01:04:29.419Z,45.17
2023-10-26T01:09:29.405Z,45.07
2023-10-26T01:14:29.420Z,45.19
2023-10-26T01:19:29.407Z,45.32
2023-10-26T01:24:29.424Z,45.71
2023-10-26T01:29:29.424Z,45.95
2023-10-26T01:34:29.414Z,45.76
2023-10-26T01:39:29.428Z,45.72
2023-10-26T01:44:29.416Z,45.45
2023-10-26T01:49:29.430Z,45.27
2023-10-26T01:54:29.432Z,45.35
2023-10-26T01:59:29.434Z,45.33
2023-10-26T02:04:29.434Z,45.32
2023-10-26T02:09:29.424Z,45.22
2023-10-26T02:14:29.437Z,45.32
2023-10-26T02:19:29.424Z,45.55
2023-10-26T02:24:29.441Z,45.42
2023-10-26T02:29:29.442Z,45.55
2023-10-26T02:34:29.492Z,45.03
2023-10-26T02:39:29.446Z,45
2023-10-26T02:44:29.434Z,45.06
2023-10-26T02:49:29.448Z,44.8
2023-10-26T02:54:29.434Z,44.49
2023-10-26T02:59:29.451Z,44.59
2023-10-26T03:04:29.451Z,44.71
2023-10-26T03:09:29.441Z,44.9
2023-10-26T03:14:29.454Z,45.08
2023-10-26T03:19:29.443Z,44.89
2023-10-26T03:24:29.458Z,44.41
2023-10-26T03:29:29.458Z,44.59
2023-10-26T03:34:29.460Z,44.54
2023-10-26T03:39:29.463Z,44.33
2023-10-26T03:44:29.450Z,44.37
2023-10-26T03:49:29.465Z,44.42
2023-10-26T03:54:29.452Z,44.24
2023-10-26T03:59:29.467Z,44.43
2023-10-26T04:04:29.468Z,44.41
2023-10-26T04:09:29.478Z,44.33
2023-10-26T04:14:29.472Z,44.36
2023-10-26T04:19:29.458Z,44.4
2023-10-26T04:24:29.474Z,44.16
2023-10-26T04:29:29.462Z,44.2
2023-10-26T04:34:29.477Z,44.29
2023-10-26T04:39:29.478Z,44.1
2023-10-26T04:44:29.467Z,44.3
2023-10-26T04:49:29.481Z,44.42
2023-10-26T04:54:29.468Z,44.26
2023-10-26T04:59:29.484Z,44.31
2023-10-26T05:04:29.485Z,44.25
2023-10-26T05:09:29.487Z,44.56
2023-10-26T05:14:29.489Z,44.25
2023-10-26T05:19:29.477Z,44.24
2023-10-26T05:24:29.490Z,44.1
2023-10-26T05:29:29.479Z,44.04
2023-10-26T05:34:29.493Z,44.4
2023-10-26T05:39:29.496Z,44.33
2023-10-26T05:44:29.497Z,44.57
2023-10-26T05:49:29.499Z,44.71
2023-10-26T05:54:29.487Z,44.49
2023-10-26T05:59:29.501Z,44.39
2023-10-26T06:04:29.489Z,44.63
2023-10-26T06:09:29.504Z,44.87
2023-10-26T06:14:29.505Z,44.83
2023-10-26T06:19:29.494Z,44.8
2023-10-26T06:24:29.507Z,44.92
2023-10-26T06:29:29.496Z,44.82
2023-10-26T06:34:29.511Z,44.47
2023-10-26T06:39:29.512Z,44.31
2023-10-26T06:44:29.514Z,44.26
2023-10-26T06:49:29.514Z,43.66
2023-10-26T06:54:29.504Z,43.51
2023-10-26T06:59:29.519Z,43.13
2023-10-26T07:04:29.506Z,42.79
2023-10-26T07:09:29.521Z,42.88
2023-10-26T07:14:29.521Z,42.65
2023-10-26T07:19:29.524Z,42.25
2023-10-26T07:24:29.526Z,41.88
2023-10-26T07:29:29.514Z,41.57
2023-10-26T07:34:29.528Z,41.57
2023-10-26T07:39:29.516Z,41.75
2023-10-26T07:44:29.531Z,41.73
2023-10-26T07:49:29.533Z,41.77
2023-10-26T07:54:29.582Z,41.4
2023-10-26T07:59:29.537Z,41.6
2023-10-26T08:04:29.525Z,41.75
2023-10-26T08:09:29.538Z,41.71
2023-10-26T08:14:29.527Z,41.43
2023-10-26T08:19:29.542Z,41.49
2023-10-26T08:24:29.544Z,41.55
2023-10-26T08:29:29.532Z,41.08
2023-10-26T08:34:29.548Z,40.72
2023-10-26T08:39:29.535Z,40.8
2023-10-26T08:44:29.550Z,40.65
2023-10-26T08:49:29.552Z,41.15
2023-10-26T08:54:29.553Z,41.57
2023-10-26T08:59:29.554Z,41.68
2023-10-26T09:04:29.544Z,41.49
2023-10-26T09:09:29.608Z,41.77
2023-10-26T09:14:29.546Z,41.71
2023-10-26T09:19:29.562Z,41.59
2023-10-26T09:24:29.562Z,42.29
2023-10-26T09:29:29.565Z,42.6
2023-10-26T09:34:29.567Z,42.72
2023-10-26T09:39:29.555Z,43.04
2023-10-26T09:44:29.570Z,42.69
2023-10-26T09:49:29.558Z,42.85
2023-10-26T09:54:29.573Z,43.11
2023-10-26T09:59:29.574Z,43.24
2023-10-26T10:04:29.563Z,43.31
2023-10-26T10:09:29.578Z,43.58
2023-10-26T10:14:29.566Z,44.9
2023-10-26T10:19:29.581Z,45.79
2023-10-26T10:24:29.567Z,47.26
2023-10-26T10:29:29.584Z,47.44
2023-10-26T10:34:29.585Z,46.67
2023-10-26T10:39:29.574Z,46.07
2023-10-26T10:44:29.588Z,45.8
2023-10-26T10:49:29.576Z,45.86
2023-10-26T10:54:29.590Z,45.8
2023-10-26T10:59:29.592Z,45.97
2023-10-26T11:04:29.594Z,46.02
2023-10-26T11:09:29.594Z,46.07
2023-10-26T11:14:29.584Z,45.36
2023-10-26T11:19:29.597Z,45.32
2023-10-26T11:24:29.586Z,44.61
2023-10-26T11:29:29.601Z,44.1
2023-10-26T11:34:29.602Z,43.59
2023-10-26T11:39:29.628Z,43.23
2023-10-26T11:44:29.606Z,43.32
2023-10-26T11:49:29.594Z,43.29
2023-10-26T11:54:29.608Z,42.76
2023-10-26T11:59:29.597Z,42.99
2023-10-26T12:04:29.612Z,42.94
2023-10-26T12:09:29.613Z,43.13
2023-10-26T12:19:29.616Z,43.46
2023-10-26T12:24:29.604Z,43.4
2023-10-26T12:29:29.618Z,43.35
2023-10-26T12:34:29.620Z,43.43
2023-10-26T12:39:29.623Z,43.07
2023-10-26T12:44:29.624Z,43.13
2023-10-26T12:49:29.613Z,42.31
2023-10-26T12:54:29.626Z,41.12
2023-10-26T12:59:29.615Z,38.62
2023-10-26T13:04:29.654Z,37.46
2023-10-26T13:09:29.633Z,36.98
2023-10-26T13:14:29.635Z,38.65
2023-10-26T13:19:29.636Z,39.87
2023-10-26T13:24:29.626Z,39.59
2023-10-26T13:29:29.641Z,40.84
2023-10-26T13:34:29.627Z,40.69
2023-10-26T13:39:29.644Z,41.48
2023-10-26T13:44:29.645Z,42.18
2023-10-26T13:49:29.635Z,43.17
2023-10-26T13:54:29.650Z,44.5
2023-10-26T13:59:29.638Z,44.62
2023-10-26T14:04:29.654Z,44.72
2023-10-26T14:09:29.654Z,44.68
2023-10-26T14:14:29.657Z,45.51
2023-10-26T14:19:29.723Z,45.26
2023-10-26T14:24:29.648Z,45.2
2023-10-26T14:29:29.663Z,44.97
2023-10-26T14:34:29.651Z,45.2
2023-10-26T14:39:29.665Z,45.13
2023-10-26T14:44:29.668Z,45.45
2023-10-26T14:49:29.669Z,45.54
2023-10-26T14:54:29.671Z,45.53
2023-10-26T14:59:29.660Z,45.57
2023-10-26T15:04:29.674Z,45.26
2023-10-26T15:09:29.662Z,45.38
2023-10-26T15:14:29.678Z,45.42
2023-10-26T15:19:29.678Z,45.18
2023-10-26T15:24:29.668Z,45.14
2023-10-26T15:29:29.682Z,45
2023-10-26T15:34:29.684Z,44.89
2023-10-26T15:39:29.685Z,44.8
2023-10-26T15:44:29.674Z,44.99
2023-10-26T15:49:29.689Z,45.06
2023-10-26T15:54:29.691Z,45.17
2023-10-26T15:59:29.680Z,44.99
2023-10-26T16:04:29.695Z,44.94
2023-10-26T16:09:29.682Z,44.73
2023-10-26T16:14:29.698Z,44.87
2023-10-26T16:19:29.698Z,44.89
2023-10-26T16:24:29.701Z,44.78
2023-10-26T16:29:29.701Z,44.74
2023-10-26T16:34:29.691Z,44.9
2023-10-26T16:39:29.706Z,45.21
2023-10-26T16:44:29.694Z,45.2
2023-10-26T16:49:29.709Z,45.28
2023-10-26T16:54:29.710Z,45.26
2023-10-26T16:59:29.720Z,45.23
2023-10-26T17:04:29.713Z,45.29
2023-10-26T17:09:29.702Z,45.37
2023-10-26T17:14:29.717Z,45.41
2023-10-26T17:19:29.705Z,45.48
2023-10-26T17:24:29.720Z,45.54
2023-10-26T17:29:29.721Z,45.34
2023-10-26T17:34:29.711Z,45.25
2023-10-26T17:39:29.724Z,45.36
2023-10-26T17:44:29.713Z,45.37
2023-10-26T17:49:29.727Z,45.13
2023-10-26T17:54:29.729Z,45.2
2023-10-26T17:59:29.731Z,45.36
2023-10-26T18:04:29.733Z,45.12
2023-10-26T18:09:29.722Z,44.89
2023-10-26T18:14:29.738Z,44.81
2023-10-26T18:19:29.724Z,44.63
2023-10-26T18:24:29.739Z,44.63
2023-10-26T18:29:29.740Z,44.53
2023-10-26T18:34:29.743Z,44.67
2023-10-26T18:39:29.744Z,44.56
2023-10-26T18:44:29.733Z,44.56
2023-10-26T18:49:29.747Z,44.96
2023-10-26T18:54:29.735Z,44.93
2023-10-26T18:59:29.751Z,44.83
2023-10-26T19:04:29.751Z,44.83
2023-10-26T19:09:29.741Z,45.03
2023-10-26T19:14:29.754Z,45.19
2023-10-26T19:19:29.742Z,45.06
2023-10-26T19:24:29.758Z,45.08
2023-10-26T19:29:29.761Z,45.11
2023-10-26T19:34:29.762Z,45.26
2023-10-26T19:39:29.763Z,45.34
2023-10-26T19:44:29.752Z,45.33
2023-10-26T19:49:29.766Z,45.47
2023-10-26T19:54:29.754Z,45.45
2023-10-26T19:59:29.769Z,45.44
2023-10-26T20:04:29.770Z,45.39
2023-10-26T20:09:29.772Z,45.35
2023-10-26T20:14:29.774Z,45.37
2023-10-26T20:19:29.762Z,45.18
2023-10-26T20:24:29.776Z,45.62
2023-10-26T20:29:29.763Z,45.47
2023-10-26T20:34:29.780Z,45.4
2023-10-26T20:39:29.781Z,45.5
2023-10-26T20:44:29.847Z,45.43
2023-10-26T20:49:29.783Z,45.52
2023-10-26T20:54:29.772Z,45.52
2023-10-26T20:59:29.787Z,45.44
2023-10-26T21:04:29.776Z,45.34
2023-10-26T21:09:29.790Z,45.11
2023-10-26T21:14:29.792Z,44.93
2023-10-26T21:19:29.781Z,44.76
2023-10-26T21:24:29.794Z,44.58
2023-10-26T21:29:29.783Z,44.53
2023-10-26T21:34:29.798Z,44.74
2023-10-26T21:39:29.799Z,45.13
2023-10-26T21:44:29.801Z,44.59
2023-10-26T21:49:29.802Z,44.41
2023-10-26T21:54:29.791Z,44.85
2023-10-26T21:59:29.805Z,45.01
2023-10-26T22:04:29.793Z,45.27
2023-10-26T22:09:29.808Z,45.59
2023-10-26T22:14:29.810Z,45.43
2023-10-26T22:19:29.859Z,45.2
2023-10-26T22:24:29.812Z,44.88
2023-10-26T22:29:29.801Z,44.41
2023-10-26T22:34:29.816Z,44.23
2023-10-26T22:39:29.804Z,43.85
2023-10-26T22:44:29.819Z,44.13
2023-10-26T22:49:29.820Z,44.13
2023-10-26T22:54:29.809Z,44.08
2023-10-26T22:59:29.823Z,44.23
2023-10-26T23:04:29.811Z,43.88
2023-10-26T23:09:29.826Z,44.06
2023-10-26T23:14:29.826Z,44.15
2023-10-26T23:19:29.829Z,44.08
2023-10-26T23:24:29.829Z,44.27
2023-10-26T23:29:29.819Z,44.54
2023-10-26T23:34:29.897Z,44.4
2023-10-26T23:39:29.821Z,44.64
2023-10-26T23:44:29.836Z,44.55
2023-10-26T23:49:29.837Z,44.49
2023-10-26T23:54:29.839Z,44.54
2023-10-26T23:59:29.840Z,44.65
